Pagrindinis puslapis
METAR-TAF:

METAR-TAF

Oro uostai :

Lusaka, Zambija

platuma: 15-19-51S, ilguma: 028-27-09E, Aukštis: 1152 m

Dabartinis oras

Ataskaita buvo paskelbta 1 valandą ir 29 minutes, ne 09:00 UTC
Vėjas 14 kt iš Rytų
Temperatūra 24°C
Drėgmė 44%
Slėgis 1027 hPa
Matomumas 10 km arba daugiau
Išsisklaidę debesys ne aukštis 3000 ft

METAR: FLKK 310900Z 10014KT 9999 SCT030 24/11 Q1027 NOSIG

Laikas: 12:29 (10:29 UTC)

Prognozė

Ataskaita buvo paskelbta 6 valandos ir 29 minutes, ne 04:00 UTC
Prognozė galioja nuo 31 metu 06 UTC su 01 metu 12 UTC
Vėjas 10 kt iš Rytų
Išsisklaidę debesys ne aukštis 2500 ft
Tapsmas
nuo 31 metu 11 UTC su 31 metu 13 UTC
Vėjas 10 kt iš Rytų
Matomumas 10 km arba daugiau
nėra debesų žemiau 1500 m ir nėra kamuolinių lietaus debesų
Nuo 31 metu 1600 UTC
Vėjas 5 kt iš Rytų
Tapsmas
nuo 01 metu 02 UTC su 01 metu 04 UTC
Vėjas 10 kt iš Rytų

TAF: FLKK 310400Z 3106/0112 09010KT SCT025 BECMG 3111/3113 09010KT CAVOK FM311600 10005KT BECMG 0102/0104 09010KT

Orai ataskaitas ir orų prognozės (METAR, TAF).

turimą stotys yra geltonos ir raudonos taškus žemėlapyje.

Perkelti pele per norėdami pamatyti stoties vardą.

Tada spustelėkite, norėdami matyti oro stebėjimo ir prognozės.

Norėdami pakeisti žemėlapį: spustelėkite ant žalios mygtukų su juodo kryžiaus žemyn,; žalią mygtuką su brūkšneliu, jei norite nutolinti; arba žalių rodyklių gretimoms žemėlapius.


METAR-TAF: